Time;durP1;ratioP1;P1;durP2;ratioP2;P2;SDS_P1;SDS_P2;PMS_P1;PMS_P2;Temp;Humidity;BMP_temperature;BMP_pressure;BME280_temperature;BME280_humidity;BME280_pressure;Samples;Min_cycle;Max_cycle;Signal;HPM_P1;HPM_P2
2023/05/09 00:01:46;;;;;;;8.63;3.17;;;6.70;66.00;;;;;;4770266;30;20055;-87
2023/05/09 00:04:15;;;;;;;8.00;3.00;;;6.70;66.10;;;;;;4770366;30;20055;-87
2023/05/09 00:06:42;;;;;;;8.48;3.75;;;6.60;66.00;;;;;;4738896;30;1223078;-87
2023/05/09 00:09:09;;;;;;;8.53;3.30;;;6.60;66.00;;;;;;4786095;30;20054;-87
2023/05/09 00:11:36;;;;;;;8.63;3.13;;;6.60;65.80;;;;;;4785762;29;20040;-87
2023/05/09 00:14:03;;;;;;;9.50;3.80;;;6.60;66.00;;;;;;4785957;29;20050;-87
2023/05/09 00:16:36;;;;;;;8.90;3.63;;;6.60;65.90;;;;;;4786047;30;20056;-87
2023/05/09 00:19:03;;;;;;;11.18;3.60;;;6.50;66.50;;;;;;4785890;29;20056;-87
2023/05/09 00:21:30;;;;;;;9.73;3.60;;;6.50;66.20;;;;;;4785707;30;20509;-87
2023/05/09 00:23:59;;;;;;;8.75;3.15;;;6.50;66.30;;;;;;4785949;30;20109;-87
2023/05/09 00:26:26;;;;;;;8.50;3.17;;;6.50;66.30;;;;;;4785694;30;20422;-87
2023/05/09 00:28:53;;;;;;;8.52;3.60;;;6.50;66.60;;;;;;4785953;30;20077;-87
2023/05/09 00:31:20;;;;;;;8.40;3.53;;;6.50;66.70;;;;;;4785506;29;20074;-87
2023/05/09 00:33:47;;;;;;;8.40;3.20;;;6.40;66.80;;;;;;4785852;29;20396;-87
2023/05/09 00:36:14;;;;;;;8.68;3.53;;;6.40;67.20;;;;;;4785706;30;20062;-87
2023/05/09 00:38:41;;;;;;;7.82;3.38;;;6.30;67.40;;;;;;4785625;30;20048;-87
2023/05/09 00:41:08;;;;;;;9.27;3.28;;;6.40;67.10;;;;;;4785520;29;20051;-87
2023/05/09 00:43:35;;;;;;;7.97;3.60;;;6.30;67.30;;;;;;4785312;30;20581;-87
2023/05/09 00:46:02;;;;;;;9.67;3.40;;;6.30;67.50;;;;;;4785528;30;20067;-87
2023/05/09 00:48:30;;;;;;;7.25;3.22;;;6.30;67.50;;;;;;4785583;30;20048;-87
2023/05/09 00:50:57;;;;;;;10.43;3.40;;;6.30;67.60;;;;;;4772393;29;20139;-87
2023/05/09 00:53:25;;;;;;;7.90;3.30;;;6.20;67.80;;;;;;4785413;29;20135;-88
2023/05/09 00:55:54;;;;;;;7.30;3.53;;;6.20;67.80;;;;;;4773138;30;20063;-87
2023/05/09 00:58:21;;;;;;;8.83;3.57;;;6.20;67.80;;;;;;4785591;29;20044;-87
2023/05/09 01:00:48;;;;;;;8.13;3.47;;;6.20;68.00;;;;;;4784073;29;20126;-87
2023/05/09 01:03:15;;;;;;;7.97;3.50;;;6.20;68.10;;;;;;4785525;30;20228;-87
2023/05/09 01:05:56;;;;;;;9.38;3.88;;;6.20;68.10;;;;;;4785175;29;20048;-87
2023/05/09 01:08:48;;;;;;;8.57;3.80;;;6.20;68.10;;;;;;4785176;30;20059;-88
2023/05/09 01:11:38;;;;;;;8.30;3.67;;;6.20;68.40;;;;;;4784930;30;20556;-86
2023/05/09 01:14:08;;;;;;;8.07;3.58;;;6.20;68.30;;;;;;4785183;30;20070;-87
2023/05/09 01:16:45;;;;;;;8.10;3.50;;;6.10;68.60;;;;;;4784869;30;20068;-87
2023/05/09 01:19:55;;;;;;;8.07;3.83;;;6.20;68.20;;;;;;4784826;30;20118;-86
2023/05/09 01:22:31;;;;;;;7.90;3.50;;;6.20;68.50;;;;;;4784553;30;20105;-87
2023/05/09 01:25:01;;;;;;;8.47;3.47;;;6.20;68.60;;;;;;4784711;30;20052;-87
2023/05/09 01:27:52;;;;;;;8.85;3.53;;;6.20;68.80;;;;;;4784748;30;20067;-87
2023/05/09 01:30:19;;;;;;;9.25;4.00;;;6.10;69.00;;;;;;4784838;30;20051;-86
2023/05/09 01:32:49;;;;;;;8.50;3.70;;;6.10;68.90;;;;;;4784494;30;20515;-87
2023/05/09 01:35:17;;;;;;;9.68;3.60;;;6.00;68.90;;;;;;4784761;30;20064;-87
2023/05/09 01:37:48;;;;;;;7.80;3.60;;;6.10;69.00;;;;;;4782453;30;20059;-87
2023/05/09 01:40:20;;;;;;;8.20;3.40;;;6.10;69.20;;;;;;4784618;30;20051;-87
2023/05/09 01:43:12;;;;;;;9.85;3.63;;;6.10;69.30;;;;;;4784464;29;20058;-87
2023/05/09 01:45:40;;;;;;;8.85;3.97;;;6.10;69.10;;;;;;4784435;30;20048;-87
2023/05/09 01:48:09;;;;;;;9.90;4.32;;;6.00;69.40;;;;;;4770902;29;20061;-87
2023/05/09 01:50:38;;;;;;;9.80;3.90;;;6.00;69.60;;;;;;4784374;30;20403;-86
2023/05/09 01:53:07;;;;;;;9.70;4.22;;;6.00;69.20;;;;;;4784379;30;20079;-87
2023/05/09 01:55:35;;;;;;;10.15;4.30;;;6.00;69.80;;;;;;4784454;30;20058;-87
2023/05/09 01:58:06;;;;;;;10.05;4.18;;;6.00;69.60;;;;;;4784426;30;20392;-87
2023/05/09 02:00:34;;;;;;;9.40;4.63;;;6.00;69.60;;;;;;4784221;29;20062;-87
2023/05/09 02:03:03;;;;;;;9.17;4.13;;;6.00;69.50;;;;;;4783188;30;20079;-87
2023/05/09 02:05:32;;;;;;;8.98;3.42;;;6.00;69.50;;;;;;4784151;29;20912;-87
2023/05/09 02:08:00;;;;;;;9.52;4.38;;;6.00;69.40;;;;;;4769584;30;20052;-87
2023/05/09 02:10:27;;;;;;;8.52;3.70;;;6.00;69.60;;;;;;4769269;30;20068;-87
2023/05/09 02:12:55;;;;;;;9.85;3.47;;;6.00;69.60;;;;;;4769213;30;20108;-87
2023/05/09 02:15:23;;;;;;;10.03;4.30;;;5.90;69.60;;;;;;4769335;30;20505;-87
2023/05/09 02:17:50;;;;;;;8.50;3.65;;;6.00;69.60;;;;;;4759191;30;20059;-87
2023/05/09 02:20:17;;;;;;;9.32;3.92;;;6.00;69.80;;;;;;4769867;30;20120;-87
2023/05/09 02:22:47;;;;;;;9.48;3.80;;;6.00;69.80;;;;;;4769334;30;20052;-87
2023/05/09 02:25:15;;;;;;;7.95;3.47;;;5.90;69.60;;;;;;4770144;30;20047;-86
2023/05/09 02:27:44;;;;;;;9.87;3.70;;;5.90;69.60;;;;;;4769305;30;20539;-87
2023/05/09 02:30:17;;;;;;;9.45;3.53;;;5.90;69.90;;;;;;4769036;30;20048;-87
2023/05/09 02:32:47;;;;;;;10.20;4.13;;;5.90;70.00;;;;;;4768835;30;20036;-87
2023/05/09 02:35:16;;;;;;;9.70;3.65;;;5.90;69.90;;;;;;4770343;30;20081;-87
2023/05/09 02:37:45;;;;;;;8.48;3.65;;;5.90;70.00;;;;;;4758399;30;20139;-87
2023/05/09 02:40:12;;;;;;;8.83;3.77;;;5.90;69.50;;;;;;4772528;30;20087;-87
2023/05/09 02:42:39;;;;;;;9.70;4.45;;;5.90;69.80;;;;;;4761098;30;20407;-86
2023/05/09 02:45:09;;;;;;;8.85;3.80;;;5.90;69.80;;;;;;4772295;30;20044;-87
2023/05/09 02:47:37;;;;;;;8.82;3.90;;;5.90;69.90;;;;;;4761334;30;20044;-86
2023/05/09 02:50:05;;;;;;;8.50;4.22;;;5.90;69.80;;;;;;4772468;30;20062;-87
2023/05/09 02:52:34;;;;;;;8.90;3.90;;;5.90;69.70;;;;;;4769018;30;20082;-87
2023/05/09 02:55:03;;;;;;;9.73;3.92;;;5.90;69.70;;;;;;4772141;30;20501;-87
2023/05/09 02:57:32;;;;;;;10.10;4.05;;;5.90;69.80;;;;;;4772205;30;20052;-87
2023/05/09 02:59:59;;;;;;;9.55;3.88;;;5.80;69.90;;;;;;4772586;30;20059;-87
2023/05/09 03:02:27;;;;;;;7.70;3.50;;;5.80;70.00;;;;;;4774411;29;20048;-87
2023/05/09 03:04:55;;;;;;;8.67;3.90;;;5.80;70.10;;;;;;4771935;30;20469;-87
2023/05/09 03:07:22;;;;;;;7.95;3.58;;;5.80;70.20;;;;;;4788498;29;20062;-87
2023/05/09 03:09:49;;;;;;;7.95;4.10;;;5.70;70.20;;;;;;4779429;29;20047;-87
2023/05/09 03:12:16;;;;;;;8.63;4.15;;;5.70;70.40;;;;;;4790145;29;20051;-87
2023/05/09 03:14:43;;;;;;;8.20;3.97;;;5.70;70.40;;;;;;4789980;30;20502;-87
2023/05/09 03:17:10;;;;;;;8.47;3.80;;;5.70;70.40;;;;;;4790331;30;20075;-87
2023/05/09 03:19:38;;;;;;;7.90;3.90;;;5.70;70.30;;;;;;4775201;30;20481;-87
2023/05/09 03:22:04;;;;;;;8.70;4.18;;;5.70;70.70;;;;;;4790216;29;20511;-87
2023/05/09 03:24:35;;;;;;;10.63;4.47;;;5.70;70.50;;;;;;4790112;30;20043;-87
2023/05/09 03:27:03;;;;;;;8.10;3.85;;;5.70;70.40;;;;;;4789743;30;20049;-87
2023/05/09 03:29:30;;;;;;;9.20;3.67;;;5.60;70.40;;;;;;4789677;29;20079;-88
2023/05/09 03:31:57;;;;;;;8.48;4.00;;;5.70;70.60;;;;;;4791070;29;20049;-87
2023/05/09 03:34:24;;;;;;;8.45;3.92;;;5.70;70.70;;;;;;4789420;29;20421;-86
2023/05/09 03:36:51;;;;;;;9.80;3.97;;;5.70;70.60;;;;;;4777889;30;20059;-88
2023/05/09 03:39:18;;;;;;;9.48;3.92;;;5.70;70.90;;;;;;4789703;29;20526;-88
2023/05/09 03:41:48;;;;;;;10.03;4.07;;;5.70;70.90;;;;;;4781766;29;20050;-88
2023/05/09 03:44:15;;;;;;;8.35;3.67;;;5.80;71.00;;;;;;4781168;29;20051;-87
2023/05/09 03:46:42;;;;;;;9.23;3.70;;;5.80;70.90;;;;;;4780794;29;20043;-85
2023/05/09 03:49:09;;;;;;;9.30;3.90;;;5.80;71.00;;;;;;4777114;30;20047;-87
2023/05/09 03:51:36;;;;;;;11.40;4.30;;;5.90;70.90;;;;;;4789369;29;20062;-88
2023/05/09 03:54:11;;;;;;;7.83;3.60;;;5.90;70.80;;;;;;4789952;29;20047;-88
2023/05/09 03:56:39;;;;;;;9.10;4.43;;;5.90;70.90;;;;;;4775174;30;20052;-87
2023/05/09 03:59:06;;;;;;;9.05;4.00;;;5.90;70.60;;;;;;4789670;29;20457;-87
2023/05/09 04:01:33;;;;;;;9.32;4.13;;;6.00;70.60;;;;;;4789721;29;20047;-87
2023/05/09 04:04:02;;;;;;;8.93;4.13;;;6.00;70.50;;;;;;4788989;29;20051;-87
2023/05/09 04:06:33;;;;;;;8.17;4.00;;;6.00;70.60;;;;;;4789266;29;20047;-87
2023/05/09 04:09:01;;;;;;;8.57;3.70;;;6.00;70.80;;;;;;4792079;29;20175;-87
2023/05/09 04:11:28;;;;;;;8.57;3.88;;;6.00;71.00;;;;;;4789485;30;20036;-87
2023/05/09 04:13:56;;;;;;;9.30;3.90;;;6.00;70.50;;;;;;4787068;29;20464;-87
2023/05/09 04:16:30;;;;;;;11.57;4.32;;;6.10;70.50;;;;;;4789316;30;20051;-87
2023/05/09 04:18:57;;;;;;;8.90;3.77;;;6.20;70.50;;;;;;4789439;30;20047;-87
2023/05/09 04:21:24;;;;;;;8.57;4.00;;;6.20;70.70;;;;;;4788062;30;20039;-87
2023/05/09 04:23:55;;;;;;;8.00;4.13;;;6.20;70.30;;;;;;4791213;29;20040;-86
2023/05/09 04:26:30;;;;;;;10.88;4.03;;;6.30;70.20;;;;;;4788730;29;20044;-87
2023/05/09 04:28:58;;;;;;;9.30;3.78;;;6.40;70.10;;;;;;4789074;29;20051;-86
2023/05/09 04:31:26;;;;;;;8.63;3.90;;;6.40;70.50;;;;;;4788701;30;20046;-87
2023/05/09 04:33:54;;;;;;;10.57;3.78;;;6.50;70.30;;;;;;4788650;30;20122;-86
2023/05/09 04:36:22;;;;;;;10.70;4.80;;;6.50;69.90;;;;;;4788469;29;20051;-87
2023/05/09 04:38:49;;;;;;;10.05;3.85;;;6.50;70.30;;;;;;4775584;29;20130;-86
2023/05/09 04:41:21;;;;;;;10.18;4.43;;;6.60;69.90;;;;;;4788438;29;20141;-87
2023/05/09 04:43:48;;;;;;;9.20;4.03;;;6.60;69.90;;;;;;4788289;30;20093;-86
2023/05/09 04:46:15;;;;;;;9.10;3.90;;;6.70;69.60;;;;;;4776141;30;20051;-87
2023/05/09 04:48:42;;;;;;;9.95;4.45;;;6.70;70.00;;;;;;4788167;29;20148;-86
2023/05/09 04:51:10;;;;;;;9.20;4.80;;;6.70;69.50;;;;;;4788593;29;20197;-87
2023/05/09 04:53:37;;;;;;;8.80;3.95;;;6.90;69.70;;;;;;4788543;30;20403;-87
2023/05/09 04:56:05;;;;;;;9.80;4.57;;;7.00;69.00;;;;;;4783607;30;20511;-87
2023/05/09 04:58:37;;;;;;;10.63;4.53;;;7.10;68.70;;;;;;4787541;29;20054;-86
2023/05/09 05:01:08;;;;;;;9.40;4.60;;;7.20;68.30;;;;;;4788370;30;20104;-87
2023/05/09 05:03:35;;;;;;;8.98;4.13;;;7.30;68.30;;;;;;4788236;30;20055;-87
2023/05/09 05:06:04;;;;;;;9.18;4.60;;;7.40;68.50;;;;;;4787832;29;20051;-86
2023/05/09 05:08:31;;;;;;;10.33;4.80;;;7.50;67.50;;;;;;4788494;30;20043;-87
2023/05/09 05:10:59;;;;;;;13.75;4.75;;;7.60;66.80;;;;;;4788216;29;20054;-86
2023/05/09 05:13:26;;;;;;;9.60;5.07;;;7.80;66.80;;;;;;4788097;30;20126;-87
2023/05/09 05:15:57;;;;;;;9.80;4.53;;;7.90;66.30;;;;;;4788122;30;20059;-87
2023/05/09 05:18:25;;;;;;;8.88;4.50;;;8.00;66.40;;;;;;4775299;29;20071;-87
2023/05/09 05:20:53;;;;;;;9.83;4.60;;;8.30;65.90;;;;;;4788129;30;20058;-87
2023/05/09 05:23:20;;;;;;;9.57;4.50;;;8.50;66.20;;;;;;4776104;29;20055;-87
2023/05/09 05:25:50;;;;;;;11.25;5.43;;;8.60;65.50;;;;;;4788060;29;20141;-87
2023/05/09 05:28:18;;;;;;;9.55;4.32;;;8.70;64.60;;;;;;4777058;30;20124;-87
2023/05/09 05:30:46;;;;;;;9.32;4.60;;;8.90;64.50;;;;;;4787665;30;20093;-87
2023/05/09 05:33:12;;;;;;;8.27;4.20;;;9.00;63.60;;;;;;4773217;29;20048;-87
2023/05/09 05:35:39;;;;;;;8.95;4.60;;;9.00;63.00;;;;;;4787955;30;20090;-87
2023/05/09 05:38:07;;;;;;;11.18;5.10;;;9.10;63.40;;;;;;4777081;29;20051;-87
2023/05/09 05:40:34;;;;;;;10.18;5.35;;;9.20;63.90;;;;;;4787621;30;20043;-86
2023/05/09 05:43:03;;;;;;;10.48;4.90;;;9.30;63.80;;;;;;4777817;30;20051;-87
2023/05/09 05:45:32;;;;;;;8.73;4.53;;;9.50;63.00;;;;;;4787660;30;20032;-87
2023/05/09 05:48:02;;;;;;;11.45;5.43;;;9.60;62.80;;;;;;4787672;30;20051;-87
2023/05/09 05:50:30;;;;;;;9.23;4.82;;;9.70;61.90;;;;;;4787617;29;20142;-87
2023/05/09 05:52:58;;;;;;;9.80;5.00;;;9.80;61.80;;;;;;4787723;30;20043;-87
2023/05/09 05:55:25;;;;;;;8.13;4.32;;;9.90;61.30;;;;;;4787646;29;20090;-86
2023/05/09 05:57:53;;;;;;;9.13;4.93;;;10.10;62.10;;;;;;4783969;30;20050;-87
2023/05/09 06:00:20;;;;;;;11.00;4.82;;;10.20;61.50;;;;;;4787537;29;20123;-87
2023/05/09 06:02:57;;;;;;;9.10;4.63;;;10.40;60.70;;;;;;4787631;29;20043;-87
2023/05/09 06:05:29;;;;;;;8.30;3.90;;;10.50;60.80;;;;;;4784640;29;20602;-88
2023/05/09 06:07:56;;;;;;;10.57;4.80;;;10.60;59.50;;;;;;4769289;30;20473;-87
2023/05/09 06:10:23;;;;;;;9.80;4.93;;;10.70;61.30;;;;;;4754876;30;20114;-87
2023/05/09 06:12:50;;;;;;;11.95;4.43;;;10.80;60.00;;;;;;4769459;30;20083;-88
2023/05/09 06:15:17;;;;;;;7.72;4.15;;;10.80;59.80;;;;;;4759599;30;20216;-87
2023/05/09 06:17:47;;;;;;;9.90;4.55;;;10.90;59.00;;;;;;4769545;30;20164;-88
2023/05/09 06:20:14;;;;;;;11.20;4.63;;;11.00;58.80;;;;;;4769706;30;20055;-88
2023/05/09 06:22:42;;;;;;;8.13;4.63;;;11.00;57.90;;;;;;4769525;30;20522;-87
2023/05/09 06:25:09;;;;;;;9.90;4.88;;;11.00;58.80;;;;;;4769283;30;20097;-87
2023/05/09 06:27:37;;;;;;;9.32;4.47;;;11.10;58.90;;;;;;4770496;30;20050;-87
2023/05/09 06:30:05;;;;;;;9.50;4.63;;;11.20;58.10;;;;;;4769405;30;20109;-88
2023/05/09 06:32:51;;;;;;;9.15;4.00;;;11.40;59.00;;;;;;4769519;30;20055;-88
2023/05/09 06:35:18;;;;;;;11.80;4.87;;;11.50;57.00;;;;;;4773786;30;20047;-87
2023/05/09 06:37:45;;;;;;;7.75;4.10;;;11.60;57.70;;;;;;4769132;30;20079;-87
2023/05/09 06:40:14;;;;;;;9.23;4.63;;;11.50;57.00;;;;;;4768896;30;20059;-88
2023/05/09 06:42:42;;;;;;;9.43;4.00;;;11.60;56.10;;;;;;4769066;30;20138;-87
2023/05/09 06:45:09;;;;;;;8.75;5.05;;;11.60;56.30;;;;;;4769144;30;20097;-87
2023/05/09 06:47:36;;;;;;;10.23;4.30;;;11.80;56.10;;;;;;4769123;30;20047;-87
2023/05/09 06:50:03;;;;;;;10.15;4.32;;;11.90;56.30;;;;;;4768897;30;20052;-87
2023/05/09 06:52:30;;;;;;;9.00;4.47;;;12.00;55.80;;;;;;4769017;30;20052;-87
2023/05/09 06:54:57;;;;;;;9.13;4.38;;;12.20;56.10;;;;;;4769132;30;20067;-87
2023/05/09 06:57:24;;;;;;;8.30;4.20;;;12.30;55.90;;;;;;4768782;30;20135;-88
2023/05/09 06:59:51;;;;;;;9.20;4.70;;;12.20;56.10;;;;;;4768990;30;20134;-88
2023/05/09 07:02:18;;;;;;;9.43;4.60;;;12.20;55.90;;;;;;4758965;30;20050;-87
2023/05/09 07:04:46;;;;;;;9.80;4.90;;;12.20;56.10;;;;;;4768946;30;20127;-87
2023/05/09 07:07:13;;;;;;;8.45;4.30;;;12.40;55.80;;;;;;4782342;30;20515;-87
2023/05/09 07:09:40;;;;;;;8.35;4.10;;;12.50;55.50;;;;;;4786769;29;20043;-88
2023/05/09 07:12:07;;;;;;;9.37;4.30;;;12.60;56.10;;;;;;4789397;29;20051;-87
2023/05/09 07:14:34;;;;;;;8.57;4.32;;;12.70;53.90;;;;;;4786625;30;20130;-88
2023/05/09 07:17:01;;;;;;;8.07;4.05;;;12.60;54.60;;;;;;4789391;29;20063;-88
2023/05/09 07:19:47;;;;;;;7.53;3.88;;;12.70;52.80;;;;;;4784546;29;20109;-88
2023/05/09 07:22:14;;;;;;;6.82;3.63;;;12.80;53.40;;;;;;4788865;29;20506;-87
2023/05/09 07:24:43;;;;;;;10.27;4.30;;;13.00;53.30;;;;;;4789831;29;20085;-87
2023/05/09 07:27:10;;;;;;;7.20;3.60;;;13.00;53.60;;;;;;4789742;30;20127;-87
2023/05/09 07:29:37;;;;;;;7.40;3.58;;;13.20;53.40;;;;;;4789677;29;20449;-88
2023/05/09 07:32:04;;;;;;;8.02;3.50;;;13.30;53.50;;;;;;4789908;30;20051;-87
2023/05/09 07:34:31;;;;;;;6.20;3.22;;;13.30;51.40;;;;;;4789828;29;20055;-88
2023/05/09 07:36:58;;;;;;;8.23;3.33;;;13.30;52.70;;;;;;4782634;29;20086;-87
2023/05/09 07:39:25;;;;;;;10.57;4.07;;;13.30;52.80;;;;;;4789832;30;20055;-87
2023/05/09 07:41:52;;;;;;;9.25;4.15;;;13.30;53.40;;;;;;4790601;29;20082;-87
2023/05/09 07:44:19;;;;;;;8.27;3.70;;;13.30;53.20;;;;;;4789744;29;20047;-87
2023/05/09 07:46:46;;;;;;;7.25;3.88;;;13.50;54.20;;;;;;4792076;29;20439;-87
2023/05/09 07:49:13;;;;;;;6.80;3.53;;;13.50;52.60;;;;;;4789488;29;20071;-88
2023/05/09 07:51:40;;;;;;;7.68;3.60;;;13.50;51.70;;;;;;4789245;29;20035;-88
2023/05/09 07:54:08;;;;;;;8.45;4.07;;;13.70;51.60;;;;;;4789409;30;20155;-87
2023/05/09 07:56:36;;;;;;;7.05;3.13;;;13.70;51.80;;;;;;4789399;30;20130;-88
2023/05/09 07:59:03;;;;;;;7.18;3.50;;;13.80;52.00;;;;;;4789243;30;20116;-87
2023/05/09 08:01:30;;;;;;;7.10;3.33;;;13.90;53.30;;;;;;4789157;29;20503;-88
2023/05/09 08:03:57;;;;;;;9.45;3.00;;;14.00;49.60;;;;;;4773969;30;20128;-87
2023/05/09 08:06:25;;;;;;;6.28;3.33;;;14.00;50.70;;;;;;4786008;30;20051;-87
2023/05/09 08:08:52;;;;;;;7.22;3.47;;;14.20;49.80;;;;;;4786214;29;20054;-88
2023/05/09 08:11:19;;;;;;;6.35;3.08;;;14.30;50.10;;;;;;4786069;30;20055;-87
2023/05/09 08:13:47;;;;;;;6.47;2.80;;;14.30;47.60;;;;;;4776066;30;20052;-88
2023/05/09 08:16:16;;;;;;;7.10;2.60;;;14.30;47.10;;;;;;4785935;29;20566;-88
2023/05/09 08:18:43;;;;;;;7.10;2.70;;;14.30;50.30;;;;;;4774678;30;20058;-88
2023/05/09 08:21:11;;;;;;;5.22;2.22;;;14.30;47.20;;;;;;4785040;29;20051;-87
2023/05/09 08:23:39;;;;;;;6.03;2.67;;;14.20;45.50;;;;;;4786153;30;20058;-88
2023/05/09 08:26:06;;;;;;;6.03;2.50;;;14.10;45.50;;;;;;4785629;30;20055;-88
2023/05/09 08:28:33;;;;;;;5.78;2.67;;;14.00;47.10;;;;;;4786008;30;20056;-87
2023/05/09 08:31:00;;;;;;;7.05;2.80;;;14.00;47.40;;;;;;4785895;30;20048;-88
2023/05/09 08:33:27;;;;;;;6.82;2.60;;;14.10;47.30;;;;;;4784628;29;20058;-87
2023/05/09 08:35:55;;;;;;;9.52;2.70;;;14.10;48.30;;;;;;4785818;30;20079;-87
2023/05/09 08:38:23;;;;;;;6.10;3.03;;;14.40;48.20;;;;;;4773505;29;20059;-88
2023/05/09 08:40:50;;;;;;;6.85;3.13;;;14.50;48.00;;;;;;4785770;29;20082;-87
2023/05/09 08:43:20;;;;;;;6.88;3.13;;;14.60;49.90;;;;;;4785611;30;20052;-88
2023/05/09 08:45:54;;;;;;;6.93;2.90;;;14.80;48.20;;;;;;4784562;30;20051;-88
2023/05/09 08:48:22;;;;;;;6.53;2.78;;;14.80;47.00;;;;;;4785531;30;20503;-88
2023/05/09 08:50:49;;;;;;;7.83;2.97;;;14.80;47.30;;;;;;4785344;30;20039;-88
2023/05/09 08:53:16;;;;;;;6.40;2.70;;;14.80;47.00;;;;;;4785680;30;20651;-88
2023/05/09 08:55:43;;;;;;;5.60;2.70;;;14.80;46.00;;;;;;4785274;29;20602;-87
2023/05/09 08:58:12;;;;;;;6.82;3.08;;;14.80;46.60;;;;;;4785253;30;20113;-87
2023/05/09 09:00:40;;;;;;;5.47;2.55;;;15.00;47.30;;;;;;4784857;30;20055;-88
2023/05/09 09:03:07;;;;;;;8.03;2.47;;;15.10;46.60;;;;;;4785376;29;20052;-87
2023/05/09 09:05:36;;;;;;;5.95;2.35;;;15.30;47.60;;;;;;4784995;29;20079;-87
2023/05/09 09:08:09;;;;;;;4.95;2.17;;;15.40;46.60;;;;;;4785209;29;20529;-88
2023/05/09 09:10:41;;;;;;;6.10;2.08;;;15.60;44.50;;;;;;4770328;30;20043;-88
2023/05/09 09:13:11;;;;;;;5.57;2.40;;;15.80;44.10;;;;;;4771046;30;20047;-87
2023/05/09 09:15:41;;;;;;;4.97;2.20;;;15.80;43.40;;;;;;4772229;29;20504;-88
2023/05/09 09:18:15;;;;;;;6.05;2.10;;;15.80;42.70;;;;;;4781841;30;20054;-87
2023/05/09 09:20:48;;;;;;;6.03;2.55;;;15.70;42.90;;;;;;4771903;30;20050;-87
2023/05/09 09:23:23;;;;;;;7.70;3.10;;;15.80;43.60;;;;;;4784962;29;20460;-87
2023/05/09 09:26:05;;;;;;;7.03;3.20;;;15.90;45.60;;;;;;4784403;30;20043;-86
2023/05/09 09:28:32;;;;;;;6.53;3.10;;;16.00;44.30;;;;;;4784974;30;20380;-88
2023/05/09 09:31:00;;;;;;;4.75;2.53;;;16.10;45.30;;;;;;4784496;30;20086;-88
2023/05/09 09:33:28;;;;;;;6.43;3.33;;;16.20;43.10;;;;;;4784777;30;20068;-87
2023/05/09 09:35:56;;;;;;;7.03;3.20;;;16.20;45.30;;;;;;4784507;30;20091;-87
2023/05/09 09:38:24;;;;;;;8.82;4.10;;;16.40;45.80;;;;;;4784300;29;20558;-87
2023/05/09 09:40:50;;;;;;;8.00;3.50;;;16.40;47.30;;;;;;4784522;30;20058;-87
2023/05/09 09:43:18;;;;;;;8.57;3.97;;;16.20;45.50;;;;;;4784305;30;20388;-87
2023/05/09 09:45:50;;;;;;;8.52;4.65;;;16.30;45.80;;;;;;4784099;29;20405;-87
2023/05/09 09:48:17;;;;;;;8.50;3.78;;;16.40;45.90;;;;;;4784190;29;20116;-87
2023/05/09 09:50:47;;;;;;;7.38;3.30;;;16.70;48.30;;;;;;4784211;30;20050;-87
2023/05/09 09:53:15;;;;;;;7.93;2.87;;;16.80;44.20;;;;;;4784168;30;20611;-87
2023/05/09 09:55:49;;;;;;;6.72;2.88;;;16.90;43.20;;;;;;4784304;30;20105;-87
2023/05/09 09:58:20;;;;;;;6.78;3.50;;;17.10;42.90;;;;;;4784081;30;20044;-87
2023/05/09 10:01:06;;;;;;;7.10;3.22;;;17.30;45.50;;;;;;4784346;30;20507;-88
2023/05/09 10:03:42;;;;;;;7.68;3.83;;;17.40;44.90;;;;;;4783955;30;20055;-87
2023/05/09 10:06:11;;;;;;;8.43;4.00;;;17.20;43.30;;;;;;4784039;29;20087;-87
2023/05/09 10:08:39;;;;;;;7.90;3.55;;;17.00;44.40;;;;;;4783888;30;20057;-87
2023/05/09 10:11:06;;;;;;;9.07;4.60;;;16.80;46.10;;;;;;4783897;30;20077;-88
2023/05/09 10:13:37;;;;;;;9.70;4.38;;;16.90;46.90;;;;;;4784046;30;20576;-87
2023/05/09 10:16:06;;;;;;;8.07;4.20;;;17.00;44.40;;;;;;4784055;30;20063;-87
2023/05/09 10:18:34;;;;;;;51.07;6.47;;;17.10;45.30;;;;;;4783915;30;20048;-87
2023/05/09 10:21:04;;;;;;;13.32;3.80;;;17.10;46.80;;;;;;4784021;30;20039;-88
2023/05/09 10:23:35;;;;;;;8.13;3.95;;;17.20;45.60;;;;;;4772681;30;20048;-87
2023/05/09 10:26:11;;;;;;;10.02;4.68;;;17.00;44.50;;;;;;4784017;30;20056;-87
2023/05/09 10:28:40;;;;;;;6.65;3.35;;;16.90;46.00;;;;;;4783787;30;20407;-87
2023/05/09 10:31:16;;;;;;;8.33;3.90;;;17.00;45.20;;;;;;4784170;30;20109;-87
2023/05/09 10:33:48;;;;;;;6.75;3.45;;;17.20;46.50;;;;;;4784018;30;20051;-87
2023/05/09 10:36:25;;;;;;;7.25;4.00;;;17.50;45.70;;;;;;4783879;29;20526;-87
2023/05/09 10:38:53;;;;;;;8.30;3.90;;;17.70;45.10;;;;;;4783712;30;20576;-87
2023/05/09 10:41:20;;;;;;;8.27;4.22;;;17.80;48.20;;;;;;4783926;30;20507;-87
2023/05/09 10:43:48;;;;;;;8.67;4.13;;;17.60;44.20;;;;;;4783530;29;20503;-87
2023/05/09 10:46:16;;;;;;;7.43;3.65;;;17.30;43.70;;;;;;4768825;30;20052;-87
2023/05/09 10:48:44;;;;;;;7.57;3.47;;;17.20;44.50;;;;;;4783727;30;20084;-87
2023/05/09 10:51:11;;;;;;;6.28;3.50;;;17.30;44.70;;;;;;4783472;30;20056;-87
2023/05/09 10:53:44;;;;;;;7.20;3.85;;;17.30;45.30;;;;;;4783659;30;20048;-88
2023/05/09 10:56:25;;;;;;;7.50;3.27;;;17.40;47.10;;;;;;4784117;29;20052;-87
2023/05/09 10:58:53;;;;;;;7.18;3.50;;;17.60;43.60;;;;;;4786585;30;20052;-87
2023/05/09 11:01:35;;;;;;;8.23;4.20;;;17.10;45.40;;;;;;4786827;29;20052;-88
2023/05/09 11:04:11;;;;;;;7.88;4.28;;;16.50;44.00;;;;;;4785048;30;20070;-87
2023/05/09 11:06:51;;;;;;;8.95;4.60;;;16.60;47.90;;;;;;4786544;29;20058;-88
2023/05/09 11:09:37;;;;;;;6.97;4.17;;;16.90;47.10;;;;;;4786811;30;20408;-87
2023/05/09 11:12:05;;;;;;;9.43;3.55;;;17.10;44.80;;;;;;4786707;30;20044;-87
2023/05/09 11:14:38;;;;;;;7.50;4.07;;;17.10;44.20;;;;;;4786746;29;20420;-87
2023/05/09 11:17:10;;;;;;;7.07;3.53;;;17.40;44.10;;;;;;4786491;30;20079;-88
2023/05/09 11:19:46;;;;;;;6.78;3.80;;;17.60;45.10;;;;;;4786833;30;20469;-88
2023/05/09 11:22:16;;;;;;;7.70;4.03;;;17.80;44.10;;;;;;4786480;30;20055;-87
2023/05/09 11:24:52;;;;;;;7.55;3.88;;;18.10;45.80;;;;;;4786544;30;20063;-87
2023/05/09 11:27:24;;;;;;;7.72;4.03;;;18.10;43.10;;;;;;4785384;30;20113;-88
2023/05/09 11:29:56;;;;;;;7.22;4.10;;;18.00;44.30;;;;;;4786654;29;20047;-87
2023/05/09 11:32:30;;;;;;;7.40;3.78;;;18.30;46.80;;;;;;4783968;30;20074;-87
2023/05/09 11:35:09;;;;;;;7.03;3.37;;;18.50;46.90;;;;;;4785764;30;20051;-87
2023/05/09 11:37:59;;;;;;;7.05;3.58;;;18.70;44.50;;;;;;4786177;30;20058;-88
2023/05/09 11:40:27;;;;;;;7.47;3.70;;;19.00;42.50;;;;;;4786173;30;20078;-87
2023/05/09 11:42:55;;;;;;;7.20;3.70;;;19.00;42.10;;;;;;4786390;30;20075;-88
2023/05/09 11:45:26;;;;;;;7.63;3.63;;;18.90;40.40;;;;;;4786054;30;20052;-87
2023/05/09 11:47:55;;;;;;;6.83;3.40;;;18.90;41.50;;;;;;4786187;30;20087;-87
2023/05/09 11:50:23;;;;;;;6.97;3.38;;;18.70;42.50;;;;;;4786150;30;20066;-87
2023/05/09 11:52:50;;;;;;;6.78;3.53;;;18.40;43.10;;;;;;4786066;29;20043;-88
2023/05/09 11:55:56;;;;;;;8.15;4.15;;;18.20;43.90;;;;;;4786121;30;20521;-87
2023/05/09 11:58:28;;;;;;;7.10;3.17;;;18.30;43.00;;;;;;4785394;29;20047;-87
2023/05/09 12:00:57;;;;;;;8.80;3.60;;;18.60;43.10;;;;;;4786027;30;20547;-88
2023/05/09 12:03:24;;;;;;;6.65;3.58;;;18.40;41.80;;;;;;4775192;30;20043;-88
2023/05/09 12:05:53;;;;;;;7.00;3.30;;;18.20;41.90;;;;;;4785617;29;20047;-88
2023/05/09 12:08:23;;;;;;;6.60;3.45;;;18.20;42.30;;;;;;4785704;29;20075;-88
2023/05/09 12:10:50;;;;;;;6.47;3.67;;;18.00;42.30;;;;;;4785915;30;20052;-87
2023/05/09 12:13:18;;;;;;;7.50;3.67;;;17.90;42.30;;;;;;4786018;30;20450;-88
2023/05/09 12:15:45;;;;;;;7.28;3.60;;;18.10;40.80;;;;;;4785951;30;20111;-88
2023/05/09 12:18:13;;;;;;;6.30;3.42;;;18.40;41.10;;;;;;4785465;30;20051;-87
2023/05/09 12:20:46;;;;;;;6.50;3.40;;;18.60;44.30;;;;;;4785645;29;20048;-87
2023/05/09 12:23:14;;;;;;;7.47;3.17;;;18.80;40.30;;;;;;4785289;30;20113;-87
2023/05/09 12:25:48;;;;;;;8.67;3.43;;;18.80;42.20;;;;;;4773808;30;20056;-88
2023/05/09 12:28:16;;;;;;;7.28;3.20;;;18.60;41.20;;;;;;4785251;30;20076;-87
2023/05/09 12:30:43;;;;;;;7.00;3.65;;;18.50;40.10;;;;;;4785716;30;20388;-87
2023/05/09 12:33:11;;;;;;;7.43;3.35;;;18.50;40.10;;;;;;4785367;30;20390;-87
2023/05/09 12:35:39;;;;;;;6.80;3.78;;;18.50;40.20;;;;;;4785527;29;20046;-87
2023/05/09 12:38:06;;;;;;;6.97;3.33;;;18.30;40.90;;;;;;4771878;29;20060;-88
2023/05/09 12:40:33;;;;;;;7.55;3.63;;;18.20;40.50;;;;;;4785593;29;20056;-88
2023/05/09 12:43:01;;;;;;;8.63;4.05;;;18.10;42.10;;;;;;4785515;29;20055;-88
2023/05/09 12:45:31;;;;;;;7.00;3.80;;;18.40;43.60;;;;;;4785267;30;20075;-88
2023/05/09 12:48:01;;;;;;;7.38;3.65;;;18.90;42.60;;;;;;4785270;30;20047;-87
2023/05/09 12:50:35;;;;;;;6.37;3.20;;;19.10;40.70;;;;;;4785643;30;20381;-88
2023/05/09 12:53:05;;;;;;;6.35;3.67;;;19.30;41.90;;;;;;4785149;29;20503;-88
2023/05/09 12:55:39;;;;;;;6.88;3.90;;;19.50;39.70;;;;;;4785221;30;20039;-88
2023/05/09 12:58:06;;;;;;;6.63;3.50;;;19.60;39.50;;;;;;4784976;30;20062;-88
2023/05/09 13:00:44;;;;;;;7.20;4.00;;;19.90;39.50;;;;;;4775189;30;20057;-88
2023/05/09 13:03:29;;;;;;;6.90;3.33;;;19.90;37.80;;;;;;4784963;29;20113;-88